createdAt,value
2019-04-26T00:00:18.270Z,77.19
2019-04-26T00:01:18.391Z,77.25
2019-04-26T00:03:12.068Z,77.34
2019-04-26T00:04:12.063Z,77.63
2019-04-26T00:06:03.666Z,77.76
2019-04-26T00:07:03.591Z,76.90
2019-04-26T00:08:56.375Z,77.19
2019-04-26T00:09:56.292Z,76.90
2019-04-26T00:11:49.048Z,77.19
2019-04-26T00:12:48.987Z,77.48
2019-04-26T00:14:41.758Z,77.58
2019-04-26T00:15:41.685Z,77.29
2019-04-26T00:17:34.479Z,77.38
2019-04-26T00:18:34.407Z,77.58
2019-04-26T00:20:27.213Z,77.76
2019-04-26T00:21:27.132Z,77.58
2019-04-26T00:23:19.907Z,77.58
2019-04-26T00:24:19.847Z,77.67
2019-04-26T00:26:13.524Z,77.58
2019-04-26T00:27:12.769Z,77.67
2019-04-26T00:29:05.352Z,77.67
2019-04-26T00:30:05.287Z,77.58
2019-04-26T00:31:58.096Z,77.48
2019-04-26T00:32:57.984Z,77.95
2019-04-26T00:34:50.759Z,77.86
2019-04-26T00:35:50.679Z,78.15
2019-04-26T00:37:43.495Z,78.44
2019-04-26T00:38:43.424Z,78.25
2019-04-26T00:40:36.223Z,78.44
2019-04-26T00:41:36.171Z,78.25
2019-04-26T00:43:28.920Z,78.82
2019-04-26T00:44:28.856Z,78.25
2019-04-26T00:46:21.647Z,78.63
2019-04-26T00:47:21.570Z,79.21
2019-04-26T00:49:15.112Z,79.39
2019-04-26T00:50:15.260Z,78.82
2019-04-26T00:52:07.074Z,79.49
2019-04-26T00:53:06.999Z,79.68
2019-04-26T00:54:59.794Z,79.78
2019-04-26T00:55:59.716Z,79.64
2019-04-26T00:57:52.480Z,79.55
2019-04-26T00:58:52.411Z,79.83
2019-04-26T01:00:45.202Z,80.22
2019-04-26T01:01:45.125Z,79.74
2019-04-26T01:03:37.909Z,80.32
2019-04-26T01:04:37.828Z,80.74
2019-04-26T01:06:30.601Z,81.08
2019-04-26T01:07:30.536Z,81.08
2019-04-26T01:09:23.677Z,81.18
2019-04-26T01:10:23.764Z,81.08
2019-04-26T01:12:16.790Z,80.89
2019-04-26T01:13:16.438Z,81.37
2019-04-26T01:15:08.740Z,81.37
2019-04-26T01:16:08.636Z,81.85
2019-04-26T01:18:01.450Z,82.71
2019-04-26T01:19:01.362Z,82.32
2019-04-26T01:20:54.145Z,82.52
2019-04-26T01:21:54.062Z,83.09
2019-04-26T01:23:46.831Z,82.71
2019-04-26T01:24:46.761Z,83.15
2019-04-26T01:26:39.537Z,83.29
2019-04-26T01:27:39.489Z,83.44
2019-04-26T01:29:32.244Z,83.34
2019-04-26T01:30:32.184Z,84.01
2019-04-26T01:32:26.077Z,84.78
2019-04-26T01:33:26.058Z,85.06
2019-04-26T01:35:17.891Z,84.68
2019-04-26T01:36:18.077Z,84.44
2019-04-26T01:38:10.371Z,83.95
2019-04-26T01:39:10.306Z,84.49
2019-04-26T01:41:03.073Z,84.53
2019-04-26T01:42:03.007Z,84.44
2019-04-26T01:43:55.769Z,84.53
2019-04-26T01:44:55.700Z,84.20
2019-04-26T01:46:48.478Z,84.88
2019-04-26T01:47:48.397Z,84.88
2019-04-26T01:49:41.182Z,85.64
2019-04-26T01:50:41.114Z,86.31
2019-04-26T01:52:33.878Z,86.50
2019-04-26T01:53:33.799Z,86.02
2019-04-26T01:56:01.255Z,86.12
2019-04-26T01:57:01.174Z,86.21
2019-04-26T01:58:53.978Z,86.98
2019-04-26T01:59:53.905Z,86.88
2019-04-26T02:01:46.680Z,86.69
2019-04-26T02:02:46.603Z,86.98
2019-04-26T02:04:39.361Z,86.79
2019-04-26T02:05:39.296Z,87.37
2019-04-26T02:07:32.914Z,87.37
2019-04-26T02:08:32.846Z,87.17
2019-04-26T02:10:26.563Z,87.46
2019-04-26T02:11:26.672Z,87.46
2019-04-26T02:13:18.338Z,87.84
2019-04-26T02:14:18.259Z,87.94
2019-04-26T02:16:11.050Z,87.84
2019-04-26T02:17:10.961Z,88.23
2019-04-26T02:19:03.715Z,88.03
2019-04-26T02:20:03.654Z,88.13
2019-04-26T02:21:56.444Z,88.32
2019-04-26T02:22:56.359Z,88.03
2019-04-26T02:24:49.138Z,88.42
2019-04-26T02:25:49.061Z,88.61
2019-04-26T02:27:42.704Z,88.70
2019-04-26T02:28:42.634Z,88.70
2019-04-26T02:30:36.711Z,88.70
2019-04-26T02:31:37.271Z,88.61
2019-04-26T02:33:29.678Z,88.99
2019-04-26T02:34:30.783Z,89.66
2019-04-26T02:36:21.640Z,89.28
2019-04-26T02:37:21.578Z,89.47
2019-04-26T02:39:14.365Z,90.23
2019-04-26T02:40:14.298Z,90.62
2019-04-26T02:42:07.068Z,91.10
2019-04-26T02:43:07.000Z,91.39
2019-04-26T02:44:59.748Z,91.77
2019-04-26T02:45:59.691Z,91.86
2019-04-26T02:47:52.462Z,92.21
2019-04-26T02:48:52.390Z,92.30
2019-04-26T02:50:45.164Z,92.87
2019-04-26T02:51:45.088Z,92.21
2019-04-26T02:53:38.899Z,92.87
2019-04-26T02:54:38.382Z,93.07
2019-04-26T02:56:32.177Z,93.26
2019-04-26T02:57:31.385Z,93.45
2019-04-26T02:59:23.268Z,93.74
2019-04-26T03:00:23.184Z,93.93
2019-04-26T03:02:15.975Z,93.93
2019-04-26T03:03:15.900Z,94.69
2019-04-26T03:05:08.732Z,94.69
2019-04-26T03:06:08.594Z,94.89
2019-04-26T03:08:01.378Z,95.07
2019-04-26T03:09:01.295Z,95.17
2019-04-26T03:10:54.062Z,95.56
2019-04-26T03:11:53.997Z,95.65
2019-04-26T03:13:46.764Z,95.84
2019-04-26T03:14:46.687Z,95.61
2019-04-26T03:16:40.894Z,95.98
2019-04-26T03:17:39.849Z,95.98
2019-04-26T03:19:33.758Z,96.27
2019-04-26T03:20:33.280Z,96.13
2019-04-26T03:22:24.895Z,96.56
2019-04-26T03:23:41.071Z,96.66
2019-04-26T03:25:17.651Z,97.13
2019-04-26T03:26:17.525Z,96.75
2019-04-26T03:28:10.301Z,97.52
2019-04-26T03:29:10.228Z,96.94
2019-04-26T03:31:03.024Z,97.61
2019-04-26T03:32:02.941Z,97.42
2019-04-26T03:33:55.869Z,97.13
2019-04-26T03:34:55.939Z,96.75
2019-04-26T03:36:48.459Z,97.23
2019-04-26T03:37:48.391Z,97.13
2019-04-26T03:39:42.916Z,97.13
2019-04-26T03:40:43.180Z,97.71
2019-04-26T03:42:35.154Z,97.71
2019-04-26T03:43:34.991Z,97.90
2019-04-26T03:45:26.593Z,97.52
2019-04-26T03:46:26.517Z,97.71
2019-04-26T03:48:19.286Z,97.71
2019-04-26T03:49:19.300Z,98.38
2019-04-26T03:51:11.994Z,98.19
2019-04-26T03:52:11.921Z,98.00
2019-04-26T03:54:04.691Z,98.19
2019-04-26T03:55:04.617Z,98.47
2019-04-26T03:56:57.375Z,98.09
2019-04-26T03:57:57.323Z,98.47
2019-04-26T03:59:50.091Z,98.09
2019-04-26T04:00:50.038Z,98.43
2019-04-26T04:02:43.404Z,98.52
2019-04-26T04:03:45.102Z,98.33
2019-04-26T04:05:35.985Z,98.43
2019-04-26T04:06:52.408Z,98.33
2019-04-26T04:08:28.247Z,98.62
2019-04-26T04:09:28.171Z,98.52
2019-04-26T04:11:20.999Z,98.33
2019-04-26T04:12:20.954Z,98.52
2019-04-26T04:14:13.760Z,98.43
2019-04-26T04:15:13.645Z,98.62
2019-04-26T04:17:06.390Z,97.95
2019-04-26T04:18:06.322Z,98.33
2019-04-26T04:19:59.080Z,98.43
2019-04-26T04:20:59.007Z,98.33
2019-04-26T04:22:51.811Z,98.33
2019-04-26T04:23:51.755Z,98.33
2019-04-26T04:25:45.968Z,98.52
2019-04-26T04:26:45.329Z,98.62
2019-04-26T04:28:58.202Z,98.24
2019-04-26T04:29:42.798Z,98.33
2019-04-26T04:31:29.941Z,98.24
2019-04-26T04:32:29.867Z,98.52
2019-04-26T04:34:22.678Z,98.62
2019-04-26T04:35:22.599Z,98.28
2019-04-26T04:37:15.355Z,98.33
2019-04-26T04:38:15.307Z,98.57
2019-04-26T04:40:08.066Z,98.81
2019-04-26T04:41:08.550Z,98.19
2019-04-26T04:43:00.871Z,98.71
2019-04-26T04:44:00.702Z,98.91
2019-04-26T04:45:53.587Z,99.43
2019-04-26T04:46:54.062Z,99.34
2019-04-26T04:48:48.153Z,98.96
2019-04-26T04:49:46.999Z,98.47
2019-04-26T04:51:39.010Z,98.57
2019-04-26T04:52:38.937Z,98.28
2019-04-26T04:54:31.716Z,98.28
2019-04-26T04:55:31.635Z,98.28
2019-04-26T04:57:24.450Z,98.28
2019-04-26T04:58:24.422Z,98.10
2019-04-26T05:00:17.265Z,98.33
2019-04-26T05:01:17.128Z,98.38
2019-04-26T05:03:09.897Z,98.43
2019-04-26T05:04:09.831Z,98.33
2019-04-26T05:06:07.684Z,98.24
2019-04-26T05:07:02.544Z,98.52
2019-04-26T05:08:55.320Z,98.43
2019-04-26T05:09:55.255Z,98.05
2019-04-26T05:11:48.027Z,98.62
2019-04-26T05:12:47.944Z,98.62
2019-04-26T05:14:40.705Z,98.52
2019-04-26T05:15:40.640Z,98.19
2019-04-26T05:17:33.455Z,97.81
2019-04-26T05:18:33.346Z,98.77
2019-04-26T05:20:26.131Z,98.10
2019-04-26T05:21:26.069Z,97.81
2019-04-26T05:23:18.900Z,97.76
2019-04-26T05:24:18.805Z,97.52
2019-04-26T05:26:11.617Z,96.99
2019-04-26T05:27:11.533Z,96.99
2019-04-26T05:29:04.341Z,97.38
2019-04-26T05:30:04.257Z,97.04
2019-04-26T05:31:57.051Z,95.79
2019-04-26T05:32:57.115Z,95.89
2019-04-26T05:34:50.653Z,96.18
2019-04-26T05:35:49.674Z,95.45
2019-04-26T05:37:42.462Z,94.59
2019-04-26T05:38:42.383Z,93.34
2019-04-26T05:40:35.161Z,87.90
2019-04-26T05:41:35.084Z,83.88
2019-04-26T05:43:27.855Z,77.88
2019-04-26T05:44:27.782Z,76.16
2019-04-26T05:46:21.397Z,71.47
2019-04-26T05:47:21.336Z,70.27
2019-04-26T05:49:14.116Z,67.95
2019-04-26T05:50:14.047Z,67.08
2019-04-26T05:52:06.871Z,68.76
2019-04-26T05:53:06.769Z,68.40
2019-04-26T05:54:59.542Z,66.79
2019-04-26T05:55:59.508Z,67.05
2019-04-26T05:57:52.817Z,67.92
2019-04-26T05:58:52.864Z,66.95
2019-04-26T06:00:46.140Z,67.79
2019-04-26T06:01:46.455Z,68.73
2019-04-26T06:03:38.836Z,70.34
2019-04-26T06:04:38.767Z,70.27
2019-04-26T06:06:31.532Z,68.63
2019-04-26T06:07:31.471Z,67.37
2019-04-26T06:09:24.264Z,66.34
2019-04-26T06:10:24.188Z,67.69
2019-04-26T06:12:16.989Z,69.59
2019-04-26T06:13:16.919Z,69.34
2019-04-26T06:15:09.729Z,70.18
2019-04-26T06:16:09.658Z,69.47
2019-04-26T06:18:02.451Z,67.66
2019-04-26T06:19:02.382Z,67.11
2019-04-26T06:20:55.450Z,68.79
2019-04-26T06:21:55.864Z,67.50
2019-04-26T06:23:47.903Z,65.37
2019-04-26T06:24:47.833Z,66.37
2019-04-26T06:26:40.637Z,64.65
2019-04-26T06:27:40.575Z,64.95
2019-04-26T06:29:33.366Z,65.59
2019-04-26T06:30:45.013Z,65.20
2019-04-26T06:32:26.144Z,62.51
2019-04-26T06:33:26.014Z,62.06
2019-04-26T06:35:20.268Z,60.92
2019-04-26T06:36:18.756Z,60.82
2019-04-26T06:38:11.587Z,60.13
2019-04-26T06:39:11.498Z,58.97
2019-04-26T06:41:04.418Z,61.29
2019-04-26T06:42:05.106Z,63.85
2019-04-26T06:43:58.254Z,66.66
2019-04-26T06:44:56.970Z,67.44
2019-04-26T06:46:49.775Z,68.47
2019-04-26T06:47:49.717Z,68.05
2019-04-26T06:49:42.509Z,66.11
2019-04-26T06:50:42.433Z,64.78
2019-04-26T06:52:35.228Z,63.49
2019-04-26T06:53:35.164Z,61.64
2019-04-26T06:55:27.965Z,61.44
2019-04-26T06:56:27.896Z,63.49
2019-04-26T06:58:20.725Z,65.98
2019-04-26T06:59:20.628Z,66.82
2019-04-26T07:01:13.411Z,64.04
2019-04-26T07:02:13.346Z,62.93
2019-04-26T07:04:06.210Z,59.78
2019-04-26T07:05:06.967Z,59.56
2019-04-26T07:06:59.901Z,61.02
2019-04-26T07:07:58.815Z,60.30
2019-04-26T07:09:51.611Z,58.70
2019-04-26T07:10:51.589Z,58.70
2019-04-26T07:12:44.337Z,58.24
2019-04-26T07:13:44.283Z,57.34
2019-04-26T07:15:37.082Z,59.59
2019-04-26T07:16:37.021Z,60.99
2019-04-26T07:18:29.820Z,59.98
2019-04-26T07:19:29.762Z,59.13
2019-04-26T07:21:22.577Z,59.00
2019-04-26T07:22:34.557Z,59.56
2019-04-26T07:24:15.306Z,59.13
2019-04-26T07:25:17.753Z,60.05
2019-04-26T07:27:08.946Z,61.19
2019-04-26T07:28:09.711Z,63.59
2019-04-26T07:30:02.312Z,66.92
2019-04-26T07:31:01.491Z,68.08
2019-04-26T07:32:53.514Z,68.73
2019-04-26T07:33:53.457Z,69.24
2019-04-26T07:35:46.289Z,67.60
2019-04-26T07:36:46.215Z,66.24
2019-04-26T07:38:38.995Z,66.66
2019-04-26T07:39:38.946Z,67.24
2019-04-26T07:41:31.731Z,67.05
2019-04-26T07:42:31.676Z,66.79
2019-04-26T07:44:24.452Z,67.57
2019-04-26T07:45:24.393Z,66.40
2019-04-26T07:47:17.219Z,66.60
2019-04-26T07:48:17.138Z,66.47
2019-04-26T07:50:09.958Z,67.18
2019-04-26T07:51:09.854Z,65.24
2019-04-26T07:53:04.638Z,62.23
2019-04-26T07:54:03.906Z,60.82
2019-04-26T07:55:55.382Z,58.58
2019-04-26T07:56:55.322Z,58.10
2019-04-26T07:58:48.174Z,60.31
2019-04-26T07:59:48.164Z,60.41
2019-04-26T08:01:40.998Z,59.92
2019-04-26T08:02:40.937Z,60.80
2019-04-26T08:04:33.743Z,63.20
2019-04-26T08:05:33.694Z,63.49
2019-04-26T08:07:26.499Z,63.39
2019-04-26T08:08:26.424Z,63.01
2019-04-26T08:10:19.222Z,62.94
2019-04-26T08:11:19.167Z,61.68
2019-04-26T08:13:13.010Z,60.72
2019-04-26T08:14:12.594Z,59.56
2019-04-26T08:16:06.406Z,59.75
2019-04-26T08:17:05.394Z,60.21
2019-04-26T08:18:57.482Z,61.97
2019-04-26T08:19:57.737Z,61.90
2019-04-26T08:21:50.265Z,60.96
2019-04-26T08:22:52.206Z,61.35
2019-04-26T08:24:42.972Z,60.70
2019-04-26T08:25:42.919Z,60.14
2019-04-26T08:27:36.587Z,59.78
2019-04-26T08:28:36.489Z,58.45
2019-04-26T08:30:29.298Z,58.53
2019-04-26T08:31:29.241Z,57.49
2019-04-26T08:33:22.040Z,56.38
2019-04-26T08:34:28.511Z,56.87
2019-04-26T08:36:14.852Z,56.20
2019-04-26T08:37:15.650Z,55.54
2019-04-26T08:39:08.379Z,54.74
2019-04-26T08:40:08.319Z,53.66
2019-04-26T08:42:01.685Z,53.27
2019-04-26T08:43:01.071Z,53.37
2019-04-26T08:44:53.872Z,54.00
2019-04-26T08:46:02.959Z,54.00
2019-04-26T08:47:50.319Z,53.92
2019-04-26T08:48:46.571Z,55.72
2019-04-26T08:50:42.223Z,57.61
2019-04-26T08:51:39.314Z,58.39
2019-04-26T08:53:32.125Z,59.07
2019-04-26T08:54:32.679Z,59.46
2019-04-26T08:56:24.870Z,59.39
2019-04-26T08:57:24.820Z,59.69
2019-04-26T08:59:17.629Z,58.58
2019-04-26T09:00:17.591Z,57.73
2019-04-26T09:02:10.376Z,56.95
2019-04-26T09:03:11.613Z,57.24
2019-04-26T09:05:03.139Z,57.14
2019-04-26T09:06:03.097Z,56.62
2019-04-26T09:07:57.560Z,57.67
2019-04-26T09:08:55.815Z,58.54
2019-04-26T09:10:48.609Z,58.64
2019-04-26T09:11:59.133Z,58.87
2019-04-26T09:13:41.339Z,58.58
2019-04-26T09:14:41.276Z,57.31
2019-04-26T09:16:34.122Z,56.92
2019-04-26T09:17:34.066Z,57.01
2019-04-26T09:19:30.574Z,58.35
2019-04-26T09:20:28.911Z,57.86
2019-04-26T09:22:22.539Z,57.74
2019-04-26T09:23:19.577Z,58.00
2019-04-26T09:25:12.387Z,58.78
2019-04-26T09:26:12.867Z,58.91
2019-04-26T09:28:05.130Z,60.10
2019-04-26T09:29:05.069Z,59.16
2019-04-26T09:30:57.864Z,57.32
2019-04-26T09:31:57.809Z,55.74
2019-04-26T09:33:50.639Z,53.03
2019-04-26T09:34:50.568Z,53.39
2019-04-26T09:36:43.340Z,53.37
2019-04-26T09:37:43.286Z,54.22
2019-04-26T09:39:36.079Z,53.66
2019-04-26T09:40:36.007Z,54.87
2019-04-26T09:42:28.790Z,56.72
2019-04-26T09:43:28.733Z,57.11
2019-04-26T09:45:21.530Z,56.26
2019-04-26T09:46:21.475Z,55.80
2019-04-26T09:48:14.267Z,55.18
2019-04-26T09:49:14.208Z,54.15
2019-04-26T09:51:07.026Z,51.95
2019-04-26T09:52:06.965Z,52.05
2019-04-26T09:53:59.769Z,51.93
2019-04-26T09:54:59.712Z,51.71
2019-04-26T09:56:52.488Z,52.66
2019-04-26T09:57:53.430Z,53.74
2019-04-26T09:59:45.285Z,53.68
2019-04-26T10:00:48.515Z,54.66
2019-04-26T10:02:38.028Z,54.42
2019-04-26T10:03:37.967Z,53.72
2019-04-26T10:05:30.777Z,52.10
2019-04-26T10:06:31.004Z,52.20
2019-04-26T10:08:23.535Z,51.88
2019-04-26T10:09:23.493Z,51.95
2019-04-26T10:11:16.283Z,50.34
2019-04-26T10:12:16.221Z,51.27
2019-04-26T10:14:09.032Z,48.55
2019-04-26T10:15:08.987Z,47.31
2019-04-26T10:17:01.785Z,45.54
2019-04-26T10:18:01.723Z,45.62
2019-04-26T10:19:54.539Z,46.36
2019-04-26T10:20:54.490Z,46.22
2019-04-26T10:22:47.273Z,48.43
2019-04-26T10:23:47.221Z,48.35
2019-04-26T10:25:40.065Z,47.37
2019-04-26T10:26:39.991Z,47.49
2019-04-26T10:28:32.783Z,47.30
2019-04-26T10:29:32.724Z,46.85
2019-04-26T10:31:25.519Z,46.38
2019-04-26T10:32:26.383Z,45.36
2019-04-26T10:34:18.282Z,46.19
2019-04-26T10:35:21.809Z,45.38
2019-04-26T10:37:11.060Z,45.38
2019-04-26T10:38:10.976Z,45.52
2019-04-26T10:40:03.809Z,44.24
2019-04-26T10:41:03.724Z,44.96
2019-04-26T10:42:56.526Z,47.39
2019-04-26T10:43:56.472Z,47.89
2019-04-26T10:45:53.466Z,48.30
2019-04-26T10:46:55.377Z,48.67
2019-04-26T10:48:45.593Z,49.51
2019-04-26T10:49:41.973Z,50.32
2019-04-26T10:51:38.709Z,51.90
2019-04-26T10:52:34.716Z,53.32
2019-04-26T10:54:27.530Z,55.48
2019-04-26T10:55:27.475Z,56.82
2019-04-26T10:57:20.287Z,57.84
2019-04-26T10:58:20.221Z,58.32
2019-04-26T11:00:14.155Z,59.00
2019-04-26T11:01:12.988Z,58.71
2019-04-26T11:03:06.181Z,58.22
2019-04-26T11:04:05.699Z,58.74
2019-04-26T11:05:58.518Z,59.23
2019-04-26T11:07:02.009Z,58.74
2019-04-26T11:08:51.237Z,59.10
2019-04-26T11:09:51.189Z,59.88
2019-04-26T11:11:43.971Z,59.10
2019-04-26T11:12:44.802Z,59.56
2019-04-26T11:14:36.684Z,59.56
2019-04-26T11:15:36.625Z,60.24
2019-04-26T11:17:29.437Z,60.31
2019-04-26T11:18:29.401Z,60.31
2019-04-26T11:20:22.149Z,59.89
2019-04-26T11:21:22.468Z,60.57
2019-04-26T11:23:14.900Z,60.67
2019-04-26T11:24:15.265Z,60.86
2019-04-26T11:26:07.643Z,60.57
2019-04-26T11:27:09.678Z,60.67
2019-04-26T11:29:00.430Z,60.86
2019-04-26T11:30:11.216Z,60.67
2019-04-26T11:31:54.198Z,61.32
2019-04-26T11:32:53.070Z,62.10
2019-04-26T11:34:45.933Z,61.25
2019-04-26T11:35:45.894Z,61.25
2019-04-26T11:37:38.690Z,61.05
2019-04-26T11:38:38.632Z,60.57
2019-04-26T11:40:31.395Z,60.38
2019-04-26T11:41:33.986Z,60.83
2019-04-26T11:43:24.192Z,61.22
2019-04-26T11:44:27.536Z,60.90
2019-04-26T11:46:21.770Z,61.90
2019-04-26T11:47:17.687Z,61.80
2019-04-26T11:49:10.509Z,61.02
2019-04-26T11:50:12.440Z,60.93
2019-04-26T11:52:04.102Z,61.38
2019-04-26T11:53:06.308Z,61.97
2019-04-26T11:54:56.241Z,61.48
2019-04-26T11:55:55.952Z,61.97
2019-04-26T11:57:49.181Z,60.80
2019-04-26T11:58:48.692Z,60.80
2019-04-26T12:00:41.492Z,60.51
2019-04-26T12:01:42.027Z,60.90
2019-04-26T12:03:34.239Z,60.48
2019-04-26T12:04:34.172Z,60.68
2019-04-26T12:06:26.966Z,60.87
2019-04-26T12:07:26.884Z,60.28
2019-04-26T12:09:19.676Z,60.38
2019-04-26T12:10:19.596Z,60.68
2019-04-26T12:12:13.073Z,59.90
2019-04-26T12:13:12.377Z,59.34
2019-04-26T12:15:08.422Z,58.95
2019-04-26T12:16:05.051Z,58.67
2019-04-26T12:17:58.982Z,60.02
2019-04-26T12:18:57.773Z,58.76
2019-04-26T12:20:50.552Z,58.86
2019-04-26T12:21:50.497Z,59.64
2019-04-26T12:23:43.307Z,60.12
2019-04-26T12:24:43.250Z,59.80
2019-04-26T12:26:42.888Z,59.83
2019-04-26T12:27:36.039Z,59.90
2019-04-26T12:29:28.798Z,60.22
2019-04-26T12:30:28.724Z,59.74
2019-04-26T12:32:21.846Z,59.83
2019-04-26T12:33:21.461Z,59.44
2019-04-26T12:35:14.268Z,58.67
2019-04-26T12:36:14.453Z,59.05
2019-04-26T12:38:07.041Z,58.89
2019-04-26T12:39:06.969Z,58.50
2019-04-26T12:40:59.790Z,58.21
2019-04-26T12:41:59.692Z,57.72
2019-04-26T12:43:54.513Z,58.40
2019-04-26T12:44:52.467Z,57.89
2019-04-26T12:46:45.290Z,58.57
2019-04-26T12:47:45.239Z,57.60
2019-04-26T12:49:38.051Z,57.11
2019-04-26T12:50:37.976Z,56.65
2019-04-26T12:52:30.743Z,56.72
2019-04-26T12:53:31.626Z,57.23
2019-04-26T12:55:23.555Z,57.11
2019-04-26T12:56:26.623Z,57.11
2019-04-26T12:58:16.380Z,57.79
2019-04-26T12:59:16.213Z,58.18
2019-04-26T13:01:12.156Z,59.12
2019-04-26T13:02:08.950Z,58.90
2019-04-26T13:04:02.626Z,59.84
2019-04-26T13:05:01.704Z,59.74
2019-04-26T13:06:54.527Z,60.52
2019-04-26T13:07:54.462Z,60.71
2019-04-26T13:09:47.253Z,61.13
2019-04-26T13:10:47.182Z,60.87
2019-04-26T13:12:40.014Z,60.38
2019-04-26T13:13:39.937Z,60.77
2019-04-26T13:15:32.807Z,60.97
2019-04-26T13:16:32.739Z,60.94
2019-04-26T13:18:25.535Z,61.68
2019-04-26T13:19:25.443Z,62.36
2019-04-26T13:21:18.260Z,62.46
2019-04-26T13:22:18.191Z,62.55
2019-04-26T13:24:11.035Z,63.23
2019-04-26T13:25:16.010Z,63.56
2019-04-26T13:27:06.098Z,63.07
2019-04-26T13:28:03.691Z,62.78
2019-04-26T13:30:02.623Z,62.29
2019-04-26T13:30:56.472Z,61.81
2019-04-26T13:32:53.278Z,61.71
2019-04-26T13:33:49.225Z,61.13
2019-04-26T13:35:46.557Z,61.91
2019-04-26T13:36:41.934Z,62.29
2019-04-26T13:38:34.755Z,62.01
2019-04-26T13:39:34.688Z,61.71
2019-04-26T13:41:28.013Z,61.61
2019-04-26T13:42:27.419Z,62.10
2019-04-26T13:44:20.230Z,61.42
2019-04-26T13:45:20.153Z,61.13
2019-04-26T13:47:12.920Z,61.32
2019-04-26T13:48:12.858Z,60.84
2019-04-26T13:50:05.652Z,60.58
2019-04-26T13:51:05.830Z,60.41
2019-04-26T13:52:58.365Z,60.22
2019-04-26T13:53:58.302Z,60.41
2019-04-26T13:55:51.089Z,59.64
2019-04-26T13:56:51.021Z,59.83
2019-04-26T13:58:43.831Z,59.92
2019-04-26T13:59:43.770Z,59.83
2019-04-26T14:01:36.550Z,59.74
2019-04-26T14:02:36.509Z,60.00
2019-04-26T14:04:29.256Z,58.83
2019-04-26T14:05:29.207Z,58.83
2019-04-26T14:07:24.428Z,60.09
2019-04-26T14:08:21.944Z,60.00
2019-04-26T14:10:14.763Z,59.48
2019-04-26T14:11:14.682Z,59.09
2019-04-26T14:13:07.485Z,60.16
2019-04-26T14:14:07.400Z,60.16
2019-04-26T14:16:00.179Z,60.06
2019-04-26T14:17:00.125Z,59.87
2019-04-26T14:18:53.613Z,60.25
2019-04-26T14:19:52.837Z,60.74
2019-04-26T14:21:45.623Z,60.55
2019-04-26T14:22:45.552Z,60.38
2019-04-26T14:24:38.333Z,60.74
2019-04-26T14:25:38.282Z,60.55
2019-04-26T14:27:31.053Z,61.13
2019-04-26T14:28:30.987Z,61.42
2019-04-26T14:30:23.768Z,60.91
2019-04-26T14:31:23.694Z,61.10
2019-04-26T14:33:16.460Z,61.85
2019-04-26T14:34:16.410Z,61.39
2019-04-26T14:36:17.586Z,62.07
2019-04-26T14:37:11.039Z,61.19
2019-04-26T14:39:06.114Z,60.97
2019-04-26T14:40:10.661Z,60.20
2019-04-26T14:41:56.902Z,60.78
2019-04-26T14:43:06.096Z,60.39
2019-04-26T14:44:49.488Z,60.68
2019-04-26T14:45:55.726Z,60.78
2019-04-26T14:47:47.308Z,60.68
2019-04-26T14:48:40.635Z,60.68
2019-04-26T14:50:33.614Z,60.36
2019-04-26T14:51:32.738Z,60.49
2019-04-26T14:53:25.581Z,60.85
2019-04-26T14:54:25.512Z,61.24
2019-04-26T14:56:18.395Z,60.85
2019-04-26T14:57:24.484Z,60.49
2019-04-26T14:59:12.200Z,60.49
2019-04-26T15:00:12.616Z,60.39
2019-04-26T15:02:06.329Z,60.49
2019-04-26T15:03:03.756Z,60.20
2019-04-26T15:04:58.098Z,60.39
2019-04-26T15:05:56.520Z,60.58
2019-04-26T15:07:51.506Z,60.55
2019-04-26T15:08:49.263Z,60.55
2019-04-26T15:10:46.681Z,60.27
2019-04-26T15:11:53.550Z,59.78
2019-04-26T15:13:40.259Z,60.04
2019-04-26T15:14:34.789Z,60.72
2019-04-26T15:16:27.530Z,60.43
2019-04-26T15:17:27.470Z,60.72
2019-04-26T15:19:20.301Z,61.21
2019-04-26T15:20:20.914Z,60.62
2019-04-26T15:22:13.179Z,60.82
2019-04-26T15:23:13.283Z,60.62
2019-04-26T15:25:07.787Z,61.49
2019-04-26T15:26:05.722Z,60.72
2019-04-26T15:27:58.524Z,60.62
2019-04-26T15:28:58.446Z,60.62
2019-04-26T15:30:52.740Z,60.82
2019-04-26T15:31:53.794Z,61.11
2019-04-26T15:33:48.533Z,60.43
2019-04-26T15:34:44.083Z,60.72
2019-04-26T15:36:36.742Z,60.91
2019-04-26T15:37:36.658Z,60.85
2019-04-26T15:39:29.434Z,60.65
2019-04-26T15:40:31.857Z,60.46
2019-04-26T15:42:23.779Z,61.24
2019-04-26T15:43:23.840Z,60.75
2019-04-26T15:45:14.893Z,61.14
2019-04-26T15:46:14.825Z,61.24
2019-04-26T15:48:07.652Z,62.69
2019-04-26T15:49:09.517Z,62.66
2019-04-26T15:51:00.373Z,63.04
2019-04-26T15:52:00.809Z,63.43
2019-04-26T15:53:53.149Z,63.92
2019-04-26T15:54:59.007Z,64.11
2019-04-26T15:56:49.275Z,64.11
2019-04-26T15:57:45.812Z,64.11
2019-04-26T15:59:38.551Z,63.92
2019-04-26T16:00:38.564Z,63.59
2019-04-26T16:02:32.124Z,63.40
2019-04-26T16:03:32.737Z,63.98
2019-04-26T16:05:29.269Z,63.89
2019-04-26T16:06:23.955Z,64.14
2019-04-26T16:08:16.744Z,65.11
2019-04-26T16:09:19.869Z,64.34
2019-04-26T16:11:11.327Z,64.14
2019-04-26T16:12:09.402Z,64.04
2019-04-26T16:14:02.237Z,65.11
2019-04-26T16:15:02.504Z,64.43
2019-04-26T16:16:58.408Z,65.01
2019-04-26T16:17:54.895Z,65.50
2019-04-26T16:19:47.678Z,65.01
2019-04-26T16:20:47.571Z,65.40
2019-04-26T16:22:40.359Z,65.30
2019-04-26T16:23:43.267Z,65.50
2019-04-26T16:25:34.378Z,65.50
2019-04-26T16:26:33.053Z,66.08
2019-04-26T16:28:25.926Z,65.79
2019-04-26T16:29:25.821Z,66.66
2019-04-26T16:31:18.580Z,67.30
2019-04-26T16:32:21.868Z,67.59
2019-04-26T16:34:11.804Z,68.27
2019-04-26T16:35:11.282Z,68.43
2019-04-26T16:37:04.055Z,68.85
2019-04-26T16:38:06.998Z,69.01
2019-04-26T16:39:56.803Z,69.01
2019-04-26T16:40:56.734Z,69.30
2019-04-26T16:42:53.085Z,69.56
2019-04-26T16:43:53.251Z,69.65
2019-04-26T16:45:42.979Z,70.23
2019-04-26T16:46:43.840Z,70.58
2019-04-26T16:48:35.061Z,70.97
2019-04-26T16:49:41.902Z,70.97
2019-04-26T16:51:27.794Z,71.26
2019-04-26T16:52:27.736Z,71.26
2019-04-26T16:54:21.863Z,71.26
2019-04-26T16:57:13.304Z,72.00
2019-04-26T16:58:13.242Z,71.80
2019-04-26T17:00:06.050Z,72.28
2019-04-26T17:00:33.601Z,71.16
2019-04-26T17:01:10.035Z,72.77
2019-04-26T17:03:02.998Z,72.86
2019-04-26T17:03:58.671Z,72.48
2019-04-26T17:05:58.842Z,72.38
2019-04-26T17:06:52.920Z,72.67
2019-04-26T17:08:49.891Z,71.80
2019-04-26T17:09:59.913Z,72.67
2019-04-26T17:11:41.131Z,72.58
2019-04-26T17:12:36.849Z,73.25
2019-04-26T17:14:29.623Z,73.06
2019-04-26T17:15:29.592Z,73.15
2019-04-26T17:17:22.535Z,73.06
2019-04-26T17:18:23.833Z,72.38
2019-04-26T17:20:15.115Z,72.96
2019-04-26T17:21:17.597Z,72.67
2019-04-26T17:23:07.833Z,72.92
2019-04-26T17:24:09.581Z,73.06
2019-04-26T17:26:02.047Z,73.79
2019-04-26T17:27:00.475Z,73.41
2019-04-26T17:28:55.536Z,73.99
2019-04-26T17:29:53.196Z,74.27
2019-04-26T17:31:45.959Z,74.91
2019-04-26T17:32:47.584Z,74.82
2019-04-26T17:34:40.455Z,75.59
2019-04-26T17:35:40.996Z,75.49
2019-04-26T17:37:31.400Z,75.59
2019-04-26T17:38:34.993Z,75.97
2019-04-26T17:40:25.397Z,75.84
2019-04-26T17:41:24.081Z,76.03
2019-04-26T17:43:16.886Z,76.90
2019-04-26T17:44:20.546Z,77.09
2019-04-26T17:46:10.553Z,77.44
2019-04-26T17:47:10.579Z,76.96
2019-04-26T17:49:02.421Z,77.34
2019-04-26T17:50:06.097Z,76.67
2019-04-26T17:51:57.880Z,78.11
2019-04-26T17:52:55.081Z,77.92
2019-04-26T17:54:49.657Z,77.88
2019-04-26T17:55:52.994Z,77.53
2019-04-26T17:57:43.574Z,77.50
2019-04-26T17:58:51.636Z,77.98
2019-04-26T18:00:45.312Z,77.78
2019-04-26T18:01:42.996Z,77.98
2019-04-26T18:03:26.220Z,78.36
2019-04-26T18:04:34.533Z,78.13
2019-04-26T18:06:29.054Z,78.03
2019-04-26T18:07:37.498Z,78.81
2019-04-26T18:09:37.694Z,78.71
2019-04-26T18:10:11.656Z,78.71
2019-04-26T18:12:04.351Z,78.42
2019-04-26T18:13:04.273Z,79.19
2019-04-26T18:15:00.112Z,79.44
2019-04-26T18:15:57.004Z,79.77
2019-04-26T18:17:49.844Z,80.02
2019-04-26T18:18:53.667Z,80.11
2019-04-26T18:20:44.433Z,80.11
2019-04-26T18:21:43.724Z,80.69
2019-04-26T18:23:36.144Z,80.88
2019-04-26T18:24:36.075Z,81.13
2019-04-26T18:26:28.853Z,81.71
2019-04-26T18:27:29.866Z,81.71
2019-04-26T18:29:23.720Z,82.29
2019-04-26T18:30:21.696Z,82.67
2019-04-26T18:32:14.537Z,82.29